Time;durP1;ratioP1;P1;durP2;ratioP2;P2;SDS_P1;SDS_P2;PMS_P1;PMS_P2;Temp;Humidity;BMP_temperature;BMP_pressure;BME280_temperature;BME280_humidity;BME280_pressure;Samples;Min_cycle;Max_cycle;Signal;HPM_P1;HPM_P2
2024/04/01 00:00:34;;;;;;;;;3.00;2.00;;;;;12.53;67.81;99223.66;2035507;28;2748175;-83
2024/04/01 00:01:48;;;;;;;;;3.83;3.17;;;;;12.52;68.17;99218.50;2036358;28;2741930;-83
2024/04/01 00:03:01;;;;;;;;;3.33;3.33;;;;;12.52;67.90;99223.78;2036663;28;2735715;-83
2024/04/01 00:04:12;;;;;;;;;3.00;1.33;;;;;12.52;67.81;99221.13;1987871;28;2752364;-83
2024/04/01 00:05:23;;;;;;;;;4.67;3.00;;;;;12.50;67.77;99223.84;2027864;28;2754438;-84
2024/04/01 00:06:34;;;;;;;;;2.67;2.67;;;;;12.47;67.60;99218.81;2035160;28;2746094;-83
2024/04/01 00:07:50;;;;;;;;;1.17;1.17;;;;;12.51;68.14;99235.25;2007043;28;2743013;-83
2024/04/01 00:09:03;;;;;;;;;2.67;2.67;;;;;12.46;67.83;99225.00;2014308;28;2749247;-84
2024/04/01 00:10:16;;;;;;;;;2.50;2.50;;;;;12.46;67.76;99222.38;2042099;28;2746103;-84
2024/04/01 00:11:29;;;;;;;;;3.17;3.17;;;;;12.44;67.75;99221.63;2020584;28;2750288;-83
2024/04/01 00:12:42;;;;;;;;;4.33;2.50;;;;;12.44;67.77;99229.53;2020568;28;2741916;-83
2024/04/01 00:13:56;;;;;;;;;3.00;3.00;;;;;12.46;67.89;99225.00;2036193;28;2754498;-84
2024/04/01 00:15:09;;;;;;;;;2.50;2.50;;;;;12.45;67.72;99231.22;2020282;28;2741947;-83
2024/04/01 00:16:22;;;;;;;;;3.67;2.67;;;;;12.43;67.91;99233.09;2021164;28;2754911;-83
2024/04/01 00:17:32;;;;;;;;;4.33;2.67;;;;;12.44;67.95;99240.94;1995778;28;2729451;-84
2024/04/01 00:18:43;;;;;;;;;4.67;3.33;;;;;12.42;67.61;99241.97;2043204;28;2744014;-84
2024/04/01 00:19:57;;;;;;;;;5.33;2.00;;;;;12.40;67.40;99236.78;2041179;28;2754419;-84
2024/04/01 00:21:10;;;;;;;;;3.67;3.50;;;;;12.39;67.42;99235.09;2011935;28;2754916;-83
2024/04/01 00:22:23;;;;;;;;;3.17;3.17;;;;;12.40;67.91;99231.50;2012922;28;2737781;-83
2024/04/01 00:23:36;;;;;;;;;4.17;2.83;;;;;12.42;67.44;99236.69;2003890;28;2754427;-83
2024/04/01 00:24:49;;;;;;;;;4.17;3.50;;;;;12.39;67.96;99232.47;2010660;28;2740887;-83
2024/04/01 00:26:03;;;;;;;;;3.50;2.50;;;;;12.39;67.58;99227.19;2012950;28;2748209;-83
2024/04/01 00:27:16;;;;;;;;;4.67;4.00;;;;;12.35;67.59;99221.28;2016080;28;2748174;-83
2024/04/01 00:28:31;;;;;;;;;2.17;2.00;;;;;12.35;67.15;99223.91;2012365;28;2742989;-83
2024/04/01 00:29:44;;;;;;;;;3.67;3.67;;;;;12.33;67.53;99223.16;2005351;28;2752340;-83
2024/04/01 00:30:57;;;;;;;;;3.67;3.67;;;;;12.34;67.72;99224.03;2005606;28;2743316;-83
2024/04/01 00:32:11;;;;;;;;;4.83;2.00;;;;;12.33;67.93;99222.31;2012626;28;2754432;-83
2024/04/01 00:33:21;;;;;;;;;4.00;4.00;;;;;12.34;67.87;99224.03;1977448;28;2752440;-83
2024/04/01 00:34:32;;;;;;;;;4.00;4.00;;;;;12.33;67.76;99225.81;2033203;28;2750266;-83
2024/04/01 00:35:45;;;;;;;;;3.83;3.33;;;;;12.34;67.90;99221.38;2037010;28;2746118;-83
2024/04/01 00:36:59;;;;;;;;;4.67;4.50;;;;;12.34;68.01;99229.28;2035289;28;2747549;-84
2024/04/01 00:38:12;;;;;;;;;8.17;4.00;;;;;12.33;67.91;99214.41;2010712;28;2746140;-83
2024/04/01 00:39:25;;;;;;;;;6.00;5.67;;;;;12.33;67.82;99217.91;2007584;28;2750289;-83
2024/04/01 00:40:38;;;;;;;;;3.83;3.83;;;;;12.31;67.72;99217.16;2007219;28;2748175;-83
2024/04/01 00:41:51;;;;;;;;;6.17;4.67;;;;;12.30;67.86;99218.09;2017017;28;2746133;-84
2024/04/01 00:43:09;;;;;;;;;5.00;5.00;;;;;12.32;68.14;99221.47;1995070;28;2740910;-83
2024/04/01 00:44:22;;;;;;;;;4.67;4.67;;;;;12.31;68.10;99224.22;2031310;28;2740910;-84
2024/04/01 00:45:36;;;;;;;;;6.00;6.00;;;;;12.28;68.17;99214.72;1979848;28;2747192;-83
2024/04/01 00:46:50;;;;;;;;;6.83;3.83;;;;;12.30;68.29;99222.53;2036056;28;2752395;-83
2024/04/01 00:48:05;;;;;;;;;5.50;5.50;;;;;12.27;68.73;99219.13;2021415;28;2732560;-83
2024/04/01 00:49:20;;;;;;;;;6.83;5.17;;;;;12.28;68.39;99219.97;2011251;28;2741937;-83
2024/04/01 00:50:35;;;;;;;;;7.50;7.50;;;;;12.28;68.71;99219.97;2013518;28;2734691;-83
2024/04/01 00:51:49;;;;;;;;;5.50;4.33;;;;;12.24;68.28;99213.22;2013341;28;2745103;-83
2024/04/01 00:53:04;;;;;;;;;4.83;4.83;;;;;12.25;68.52;99222.81;2012701;28;2746511;-83
2024/04/01 00:54:17;;;;;;;;;4.83;4.50;;;;;12.24;68.19;99221.13;2012701;28;2742962;-83
2024/04/01 00:55:33;;;;;;;;;6.00;5.00;;;;;12.22;68.44;99212.50;2012792;28;2740913;-83
2024/04/01 00:56:48;;;;;;;;;8.17;6.33;;;;;12.25;68.77;99225.44;2027779;28;2739880;-83
2024/04/01 00:58:02;;;;;;;;;5.50;5.17;;;;;12.25;68.17;99221.03;2029285;28;2745065;-83
2024/04/01 00:59:17;;;;;;;;;6.17;6.17;;;;;12.24;68.41;99219.34;2005109;28;2739869;-83
2024/04/01 01:00:28;;;;;;;;;7.00;7.00;;;;;12.21;68.45;99214.28;1987141;28;2752424;-83
2024/04/01 01:01:44;;;;;;;;;3.67;3.67;;;;;12.22;68.47;99220.38;2040353;28;2741941;-83
2024/04/01 01:02:59;;;;;;;;;7.00;5.50;;;;;12.20;68.72;99222.28;2017583;28;2741928;-83
2024/04/01 01:04:12;;;;;;;;;8.33;5.83;;;;;12.19;69.03;99223.22;2013048;28;2745080;-83
2024/04/01 01:05:27;;;;;;;;;7.67;6.50;;;;;12.22;68.72;99225.66;2035833;28;2741980;-83
2024/04/01 01:06:42;;;;;;;;;6.00;4.00;;;;;12.20;68.45;99227.56;2036201;28;2747680;-83
2024/04/01 01:07:55;;;;;;;;;7.17;5.00;;;;;12.18;68.81;99229.41;2012693;28;2748174;-84
2024/04/01 01:09:11;;;;;;;;;5.50;5.50;;;;;12.17;68.70;99222.47;2012722;28;2743351;-83
2024/04/01 01:10:24;;;;;;;;;5.67;5.17;;;;;12.20;68.79;99232.81;2007129;28;2742011;-84
2024/04/01 01:11:39;;;;;;;;;6.33;5.33;;;;;12.15;68.75;99235.72;2037019;28;2745064;-83
2024/04/01 01:12:52;;;;;;;;;6.17;6.00;;;;;12.17;68.85;99233.84;2020666;28;2740914;-83
2024/04/01 01:14:05;;;;;;;;;7.33;7.33;;;;;12.15;68.85;99236.56;2045170;28;2734633;-83
2024/04/01 01:15:16;;;;;;;;;5.33;4.67;;;;;12.19;68.95;99246.91;2009721;28;2750261;-83
2024/04/01 01:16:27;;;;;;;;;6.00;6.00;;;;;12.18;68.65;99250.50;2023102;28;2748220;-83
2024/04/01 01:17:38;;;;;;;;;10.33;7.33;;;;;12.17;68.85;99246.19;2022893;28;2758730;-83
2024/04/01 01:18:53;;;;;;;;;8.17;7.33;;;;;12.13;68.90;99245.50;2036804;28;2737796;-83
2024/04/01 01:20:11;;;;;;;;;6.00;6.00;;;;;12.17;68.66;99254.06;2011411;28;2750321;-83
2024/04/01 01:21:25;;;;;;;;;8.17;6.50;;;;;12.17;69.02;99254.06;2011901;28;2739839;-83
2024/04/01 01:22:43;;;;;;;;;7.50;7.00;;;;;12.15;68.83;99257.66;2009324;28;2746103;-83
2024/04/01 01:23:57;;;;;;;;;8.00;7.00;;;;;12.12;68.94;99246.44;2013981;28;2730529;-83
2024/04/01 01:25:10;;;;;;;;;7.00;5.67;;;;;12.14;69.23;99255.97;1990608;28;2735714;-83
2024/04/01 01:26:21;;;;;;;;;7.00;7.00;;;;;12.14;68.92;99249.84;2024412;28;1832644;-83
2024/04/01 01:27:39;;;;;;;;;9.50;6.50;;;;;12.17;68.85;99256.72;2035064;28;2747159;-83
2024/04/01 01:28:52;;;;;;;;;6.50;6.50;;;;;12.13;68.77;99256.91;2036881;28;2746120;-83
2024/04/01 01:30:16;;;;;;;;;7.00;7.00;;;;;12.11;68.72;99258.75;2017941;28;2743442;-83
2024/04/01 01:31:26;;;;;;;;;10.00;9.00;;;;;12.14;68.98;99265.66;2001949;28;2757571;-83
2024/04/01 01:32:38;;;;;;;;;6.50;6.50;;;;;12.13;68.95;99261.31;2028190;28;2738003;-83
2024/04/01 01:33:52;;;;;;;;;6.33;6.33;;;;;12.12;69.08;99260.44;2007480;28;2747153;-83
2024/04/01 01:35:08;;;;;;;;;7.33;6.50;;;;;12.10;68.86;99262.31;2012813;28;2744031;-83
2024/04/01 01:36:21;;;;;;;;;5.67;5.67;;;;;12.10;68.90;99256.22;2019002;28;2734694;-83
2024/04/01 01:37:31;;;;;;;;;7.33;7.33;;;;;12.11;69.26;99264.03;1989195;28;2748657;-84
2024/04/01 01:38:42;;;;;;;;;7.00;6.00;;;;;12.13;68.62;99269.22;2035640;28;2732580;-83
2024/04/01 01:39:53;;;;;;;;;8.00;8.00;;;;;12.07;69.19;99254.63;1985840;28;3447123;-83
2024/04/01 01:41:04;;;;;;;;;6.67;4.67;;;;;12.09;69.16;99263.28;2035340;28;2748194;-83
2024/04/01 01:42:17;;;;;;;;;7.50;5.67;;;;;12.11;69.27;99269.28;2036051;28;2737766;-83
2024/04/01 01:43:30;;;;;;;;;7.17;6.33;;;;;12.10;69.36;99270.22;2012311;28;2734660;-84
2024/04/01 01:44:43;;;;;;;;;7.17;6.67;;;;;12.11;69.28;99276.34;2012617;28;2739896;-83
2024/04/01 01:45:57;;;;;;;;;2.00;1.00;;;;;12.07;69.13;99269.59;2038577;28;2731504;-83
2024/04/01 01:47:10;;;;;;;;;6.00;5.00;;;;;12.09;69.24;99271.19;2010567;28;2740427;-84
2024/04/01 01:48:20;;;;;;;;;4.00;4.00;;;;;12.11;69.10;99273.72;1987153;28;2749259;-84
2024/04/01 01:49:31;;;;;;;;;5.33;5.00;;;;;12.10;69.06;99277.31;2028166;28;2741252;-82
2024/04/01 01:50:42;;;;;;;;;6.67;5.33;;;;;12.12;69.09;99278.88;2005799;28;2750279;-83
2024/04/01 01:51:53;;;;;;;;;3.00;3.00;;;;;12.09;69.05;99267.69;2038016;28;2752351;-83
2024/04/01 01:53:09;;;;;;;;;4.00;3.83;;;;;12.11;68.03;99273.72;2013212;28;2741925;-83
2024/04/01 01:54:19;;;;;;;;;4.00;4.00;;;;;12.10;68.65;99270.22;2003405;28;2754448;-83
2024/04/01 01:55:30;;;;;;;;;4.33;3.00;;;;;12.09;68.89;99265.06;2035654;28;2754474;-83
2024/04/01 01:56:43;;;;;;;;;5.50;3.83;;;;;12.09;68.88;99265.06;2037453;28;2735725;-83
2024/04/01 01:57:56;;;;;;;;;2.50;1.83;;;;;12.12;69.08;99273.59;2005544;28;2737762;-83
2024/04/01 01:59:09;;;;;;;;;5.50;3.67;;;;;12.11;69.14;99269.28;2005396;28;2746091;-83
2024/04/01 02:00:23;;;;;;;;;4.00;4.00;;;;;12.12;68.95;99270.16;1998685;28;2752386;-83
2024/04/01 02:01:36;;;;;;;;;0.50;0.50;;;;;12.12;68.36;99273.59;2014749;28;2731500;-83
2024/04/01 02:02:46;;;;;;;;;4.00;4.00;;;;;12.15;68.74;99278.72;2011782;28;2754420;-83
2024/04/01 02:03:58;;;;;;;;;5.00;4.00;;;;;12.14;68.70;99284.94;2030152;28;2750285;-83
2024/04/01 02:05:11;;;;;;;;;3.67;3.67;;;;;12.14;68.79;99281.47;2013723;28;2754491;-83
2024/04/01 02:06:24;;;;;;;;;4.50;4.50;;;;;12.14;68.44;99281.47;2004193;28;2750802;-83
2024/04/01 02:07:37;;;;;;;;;4.00;4.00;;;;;12.17;68.60;99285.69;2010936;28;2741912;-82
2024/04/01 02:08:48;;;;;;;;;10.00;4.67;;;;;12.15;68.13;99283.97;1986571;28;3487761;-82
2024/04/01 02:09:59;;;;;;;;;5.00;4.00;;;;;12.12;68.56;99276.25;2027498;28;2754454;-83
2024/04/01 02:11:13;;;;;;;;;2.50;1.83;;;;;12.15;68.35;99283.97;1999481;28;2745072;-82
2024/04/01 02:12:26;;;;;;;;;3.83;3.83;;;;;12.15;68.18;99283.97;2005641;28;2747168;-82
2024/04/01 02:13:40;;;;;;;;;4.00;4.00;;;;;12.15;68.54;99283.97;2014071;28;2740891;-82
2024/04/01 02:14:54;;;;;;;;;3.00;3.00;;;;;12.15;68.50;99283.97;2014257;28;2745099;-82
2024/04/01 02:16:08;;;;;;;;;4.50;3.33;;;;;12.15;68.33;99278.72;2013229;28;2754427;-82
2024/04/01 02:17:22;;;;;;;;;3.33;3.33;;;;;12.17;68.29;99278.63;2005854;28;2747137;-82
2024/04/01 02:18:35;;;;;;;;;4.00;4.00;;;;;12.19;68.07;99282.00;2006393;28;2752356;-82
2024/04/01 02:19:49;;;;;;;;;4.00;4.00;;;;;12.20;67.77;99288.13;2036889;28;2752881;-82
2024/04/01 02:21:02;;;;;;;;;4.00;4.00;;;;;12.20;67.99;99288.97;2020426;28;2739192;-83
2024/04/01 02:22:19;;;;;;;;;3.83;3.83;;;;;12.20;68.23;99286.31;2022129;28;2753393;-82
2024/04/01 02:23:32;;;;;;;;;3.17;2.83;;;;;12.21;67.83;99287.19;2010290;28;2745060;-83
2024/04/01 02:24:45;;;;;;;;;2.00;2.00;;;;;12.19;67.73;99292.56;1999042;28;2752355;-83
2024/04/01 02:26:03;;;;;;;;;2.83;2.17;;;;;12.20;67.54;99296.03;2037598;28;2742970;-83
2024/04/01 02:27:16;;;;;;;;;2.33;2.33;;;;;12.19;67.77;99295.19;2036344;28;2746222;-83
2024/04/01 02:28:32;;;;;;;;;0.83;0.83;;;;;12.23;67.85;99303.72;2005630;28;2731526;-83
2024/04/01 02:29:45;;;;;;;;;2.00;2.00;;;;;12.22;67.65;99302.06;2040985;28;2732600;-83
2024/04/01 02:30:59;;;;;;;;;2.17;2.17;;;;;12.18;67.61;99304.03;2011132;28;2735718;-83
2024/04/01 02:32:12;;;;;;;;;1.83;0.83;;;;;12.21;67.86;99302.97;2016315;28;2725290;-83
2024/04/01 02:33:22;;;;;;;;;3.33;1.33;;;;;12.24;67.53;99313.34;1987089;28;2750258;-83
2024/04/01 02:34:33;;;;;;;;;3.33;2.00;;;;;12.20;67.68;99302.13;2035423;28;2754459;-83
2024/04/01 02:35:47;;;;;;;;;2.17;1.83;;;;;12.22;67.65;99310.78;2016719;28;2742499;-83
2024/04/01 02:37:00;;;;;;;;;1.00;1.00;;;;;12.22;67.23;99309.94;2037767;28;2746110;-83
2024/04/01 02:38:10;;;;;;;;;3.00;2.00;;;;;12.19;67.36;99297.81;1987064;28;2752372;-83
2024/04/01 02:39:22;;;;;;;;;2.00;2.00;;;;;12.22;67.46;99302.88;2036069;28;2754810;-83
2024/04/01 02:40:35;;;;;;;;;2.17;2.17;;;;;12.21;67.55;99297.72;2030670;28;2754435;-83
2024/04/01 02:41:50;;;;;;;;;3.67;2.33;;;;;12.23;67.47;99303.72;2007310;28;2740885;-83
2024/04/01 02:43:04;;;;;;;;;2.67;2.67;;;;;12.21;67.19;99300.34;2020037;28;2750811;-83
2024/04/01 02:44:17;;;;;;;;;2.33;1.33;;;;;12.23;67.29;99304.56;2007257;28;2729776;-83
2024/04/01 02:45:30;;;;;;;;;1.67;1.67;;;;;12.22;67.22;99291.50;2014685;28;2751610;-83
2024/04/01 02:46:44;;;;;;;;;2.83;2.83;;;;;12.24;67.09;99297.53;2037053;28;2749256;-83
2024/04/01 02:47:58;;;;;;;;;2.00;2.00;;;;;12.22;67.32;99297.59;2005432;28;2748177;-83
2024/04/01 02:49:11;;;;;;;;;2.67;2.67;;;;;12.22;66.75;99299.41;2006581;28;2744043;-83
2024/04/01 02:50:24;;;;;;;;;1.67;1.67;;;;;12.24;66.91;99313.34;2014966;28;2732596;-83
2024/04/01 02:51:38;;;;;;;;;0.67;0.67;;;;;12.23;66.93;99312.47;2037649;28;2731511;-83
2024/04/01 02:52:51;;;;;;;;;2.67;2.67;;;;;12.22;66.99;99312.59;2005139;28;2744046;-82
2024/04/01 02:54:05;;;;;;;;;1.67;1.67;;;;;12.22;66.80;99309.94;2006971;28;2737756;-83
2024/04/01 02:55:18;;;;;;;;;2.67;2.00;;;;;12.21;66.90;99313.50;1988075;28;2754444;-84
2024/04/01 02:56:31;;;;;;;;;2.50;2.00;;;;;12.21;66.82;99318.78;2028197;28;2750784;-83
2024/04/01 02:57:45;;;;;;;;;0.00;0.00;;;;;12.22;66.64;99320.50;2007097;28;2736724;-83
2024/04/01 02:59:09;;;;;;;;;1.33;0.83;;;;;12.17;66.60;99312.88;2038139;28;2735670;-84
2024/04/01 03:00:22;;;;;;;;;1.17;1.17;;;;;12.19;66.48;99326.78;2015188;28;2733627;-84
2024/04/01 03:01:41;;;;;;;;;1.33;1.33;;;;;12.15;66.33;99322.63;2037329;28;2739896;-83
2024/04/01 03:02:54;;;;;;;;;1.83;1.83;;;;;12.15;66.61;99325.28;2013960;28;2740922;-84
2024/04/01 03:04:08;;;;;;;;;2.33;1.67;;;;;12.17;66.06;99333.94;2014156;28;2746094;-84
2024/04/01 03:05:21;;;;;;;;;1.50;1.50;;;;;12.10;66.34;99322.91;2014258;28;2742038;-83
2024/04/01 03:06:36;;;;;;;;;2.83;0.67;;;;;12.17;66.55;99338.38;2006215;28;2737786;-84
2024/04/01 03:07:50;;;;;;;;;1.83;1.67;;;;;12.08;65.83;99324.78;2007200;28;2740412;-83
2024/04/01 03:09:04;;;;;;;;;1.00;1.00;;;;;12.10;65.59;99327.34;2013168;28;2738823;-83
2024/04/01 03:10:17;;;;;;;;;1.17;1.17;;;;;12.10;65.41;99332.59;2014691;28;2746099;-84
2024/04/01 03:11:31;;;;;;;;;1.17;1.17;;;;;12.04;65.63;99328.56;2014509;28;2738112;-83
2024/04/01 03:12:45;;;;;;;;;1.67;1.00;;;;;12.03;65.65;99330.34;2013899;28;2746637;-83
2024/04/01 03:13:58;;;;;;;;;0.67;0.67;;;;;12.01;65.83;99339.28;2038340;28;2731520;-83
2024/04/01 03:15:16;;;;;;;;;2.00;2.00;;;;;12.03;66.20;99338.25;2013876;28;2732573;-83
2024/04/01 03:16:29;;;;;;;;;0.50;0.50;;;;;12.05;65.90;99340.78;2014905;28;2732015;-83
2024/04/01 03:17:44;;;;;;;;;1.17;1.17;;;;;12.06;66.02;99345.09;2037122;28;2739908;-83
2024/04/01 03:18:57;;;;;;;;;1.00;0.00;;;;;12.06;66.19;99341.63;2037870;28;2736713;-83
2024/04/01 03:20:11;;;;;;;;;1.83;1.50;;;;;12.10;66.36;99346.59;2012709;28;2736842;-82
2024/04/01 03:21:25;;;;;;;;;4.00;1.33;;;;;12.10;66.00;99348.41;2005494;28;2746610;-83
2024/04/01 03:22:38;;;;;;;;;1.33;1.17;;;;;12.12;65.74;99357.06;2014130;28;2736743;-83
2024/04/01 03:23:52;;;;;;;;;1.67;1.67;;;;;12.09;65.73;99347.56;2018024;28;2739872;-83
2024/04/01 03:25:06;;;;;;;;;1.33;1.33;;;;;12.10;65.76;99353.69;2014344;28;2738823;-83
2024/04/01 03:26:19;;;;;;;;;1.33;1.33;;;;;12.12;65.60;99351.78;2037762;28;2745056;-83
2024/04/01 03:27:33;;;;;;;;;0.83;0.83;;;;;12.12;65.73;99352.63;2013604;28;2738851;-82
2024/04/01 03:28:46;;;;;;;;;0.00;0.00;;;;;12.13;65.75;99345.59;2038837;28;2722130;-83
2024/04/01 03:29:59;;;;;;;;;3.33;0.50;;;;;12.11;65.71;99353.56;2037186;28;2738799;-83
2024/04/01 03:31:12;;;;;;;;;2.33;1.00;;;;;12.12;65.85;99357.88;2018071;28;2736751;-83
2024/04/01 03:32:25;;;;;;;;;1.67;1.67;;;;;12.12;66.00;99354.44;2021279;28;2736728;-83
2024/04/01 03:33:38;;;;;;;;;1.00;1.00;;;;;12.13;65.65;99353.50;2012827;28;2733591;-83
2024/04/01 03:34:53;;;;;;;;;0.67;0.67;;;;;12.10;65.74;99348.41;2008092;28;2726947;-83
2024/04/01 03:36:06;;;;;;;;;2.17;1.50;;;;;12.10;65.96;99356.31;2043532;28;2738120;-83
2024/04/01 03:37:19;;;;;;;;;2.33;2.33;;;;;12.11;65.32;99360.63;2013646;28;2750321;-83
2024/04/01 03:38:32;;;;;;;;;2.00;1.17;;;;;12.10;65.58;99353.69;2014427;28;2733610;-84
2024/04/01 03:39:46;;;;;;;;;1.67;0.50;;;;;12.08;65.56;99356.38;2010793;28;2726339;-83
2024/04/01 03:40:59;;;;;;;;;3.33;0.67;;;;;12.06;65.09;99352.16;2036980;28;2737101;-83
2024/04/01 03:42:14;;;;;;;;;0.50;0.50;;;;;12.05;65.54;99359.19;2037522;28;2736744;-83
2024/04/01 03:43:27;;;;;;;;;2.17;1.33;;;;;12.02;65.61;99354.16;2029767;28;2729507;-83
2024/04/01 03:44:41;;;;;;;;;1.33;1.33;;;;;12.03;65.64;99361.94;2029014;28;2735710;-83
2024/04/01 03:45:58;;;;;;;;;1.00;0.67;;;;;12.03;65.50;99353.19;2037696;28;2734656;-83
2024/04/01 03:47:11;;;;;;;;;1.33;1.33;;;;;12.02;65.29;99365.53;2015820;28;2736756;-83
2024/04/01 03:48:25;;;;;;;;;0.00;0.00;;;;;12.03;65.78;99372.47;2045724;28;2731524;-83
2024/04/01 03:49:38;;;;;;;;;2.83;0.67;;;;;12.02;65.90;99365.53;2045724;28;2735710;-83
2024/04/01 03:50:52;;;;;;;;;0.83;0.83;;;;;12.02;65.26;99367.31;2022501;28;2736717;-83
2024/04/01 03:52:05;;;;;;;;;1.50;1.00;;;;;12.00;65.55;99369.19;2022250;28;2732604;-83
2024/04/01 03:53:20;;;;;;;;;1.00;1.00;;;;;12.01;65.76;99369.09;2045802;28;2740352;-83
2024/04/01 03:54:34;;;;;;;;;1.50;1.33;;;;;11.98;65.76;99366.63;2034798;28;2737785;-83
2024/04/01 03:55:47;;;;;;;;;0.67;0.67;;;;;11.97;65.36;99372.88;2012131;28;2731512;-83
2024/04/01 03:57:01;;;;;;;;;1.33;1.33;;;;;11.96;65.23;99375.56;2014043;28;2738818;-83
2024/04/01 03:58:15;;;;;;;;;1.17;1.17;;;;;11.96;65.37;99383.47;2022638;28;2736755;-83
2024/04/01 03:59:29;;;;;;;;;1.17;1.17;;;;;11.92;65.58;99377.56;2021934;28;2730486;-83
2024/04/01 04:00:43;;;;;;;;;1.17;1.00;;;;;11.90;65.03;99382.06;2045359;28;2736804;-82
2024/04/01 04:01:57;;;;;;;;;1.33;0.50;;;;;11.85;65.12;99377.09;2022344;28;2743045;-82
2024/04/01 04:03:10;;;;;;;;;2.00;2.00;;;;;11.85;65.33;99382.34;2012564;28;2744012;-82
2024/04/01 04:04:23;;;;;;;;;0.50;0.50;;;;;11.82;65.19;99382.53;2005676;28;2733639;-82
2024/04/01 04:05:37;;;;;;;;;1.00;0.50;;;;;11.81;65.58;99381.69;2029504;28;2737782;-83
2024/04/01 04:06:50;;;;;;;;;1.50;1.50;;;;;11.82;65.33;99380.75;2038228;28;2734694;-84
2024/04/01 04:08:03;;;;;;;;;2.33;1.67;;;;;11.79;65.13;99380.94;2016929;28;2732581;-83
2024/04/01 04:09:16;;;;;;;;;1.33;0.50;;;;;11.78;65.15;99381.00;2014167;28;2731520;-82
2024/04/01 04:10:31;;;;;;;;;1.67;0.83;;;;;11.74;65.65;99383.00;2036727;28;2735681;-82
2024/04/01 04:11:51;;;;;;;;;0.00;0.00;;;;;11.78;65.24;99389.75;2014941;28;2725278;-82
2024/04/01 04:13:04;;;;;;;;;1.00;1.00;;;;;11.77;65.71;99388.09;2034664;28;2736756;-82
2024/04/01 04:14:26;;;;;;;;;1.00;1.00;;;;;11.79;65.48;99393.25;2005142;28;2736194;-81
2024/04/01 04:15:40;;;;;;;;;1.67;1.67;;;;;11.75;65.33;99382.06;2008820;28;2716917;-82
2024/04/01 04:16:53;;;;;;;;;0.67;0.67;;;;;11.77;64.86;99381.97;2029938;28;2738843;-82
2024/04/01 04:18:06;;;;;;;;;0.83;0.50;;;;;11.70;65.44;99379.69;2014750;28;2737765;-82
2024/04/01 04:19:20;;;;;;;;;3.50;1.00;;;;;11.73;65.23;99388.34;2022342;28;2732593;-82
2024/04/01 04:20:33;;;;;;;;;0.50;0.50;;;;;11.65;64.85;99376.50;2036377;28;2745497;-83
2024/04/01 04:21:47;;;;;;;;;1.83;1.50;;;;;11.68;65.10;99386.81;2011987;28;2737793;-82
2024/04/01 04:23:00;;;;;;;;;1.00;1.00;;;;;11.70;64.89;99384.94;2036880;28;2737761;-81
2024/04/01 04:24:14;;;;;;;;;1.50;1.50;;;;;11.68;64.61;99392.09;2004677;28;2736732;-82
2024/04/01 04:25:28;;;;;;;;;1.17;1.17;;;;;11.63;65.17;99382.78;2005671;28;2738799;-81
2024/04/01 04:26:41;;;;;;;;;1.50;1.50;;;;;11.61;65.08;99379.38;1998568;28;2729464;-82
2024/04/01 04:27:55;;;;;;;;;2.00;2.00;;;;;11.62;65.43;99381.94;2037945;28;2734644;-82
2024/04/01 04:29:08;;;;;;;;;0.00;0.00;;;;;11.61;65.38;99380.22;2015422;28;2732582;-82
2024/04/01 04:30:21;;;;;;;;;0.00;0.00;;;;;11.61;65.70;99377.59;2035195;28;2735694;-82
2024/04/01 04:31:35;;;;;;;;;0.00;0.00;;;;;11.65;65.66;99380.91;2014809;28;2735702;-82
2024/04/01 04:32:48;;;;;;;;;2.33;0.00;;;;;11.65;65.72;99383.53;2038366;28;2725273;-82
2024/04/01 04:34:01;;;;;;;;;0.50;0.50;;;;;11.69;65.84;99385.03;2033433;28;2731512;-82
2024/04/01 04:35:15;;;;;;;;;1.00;1.00;;;;;11.70;65.80;99384.13;2037640;28;2731524;-81
2024/04/01 04:36:28;;;;;;;;;1.67;1.17;;;;;11.67;65.68;99373.78;2044998;28;2734091;-82
2024/04/01 04:37:41;;;;;;;;;1.00;1.00;;;;;11.68;65.43;99371.03;2005167;28;2727345;-82
2024/04/01 04:38:54;;;;;;;;;1.00;1.00;;;;;11.70;65.26;99379.69;2029443;28;2736076;-82
2024/04/01 04:40:14;;;;;;;;;0.33;0.33;;;;;11.72;65.52;99381.38;2014219;28;2730485;-82
2024/04/01 04:41:29;;;;;;;;;1.50;0.50;;;;;11.72;65.34;99382.25;2027996;28;2742974;-82
2024/04/01 04:42:42;;;;;;;;;3.00;1.67;;;;;11.72;65.55;99386.66;2030667;28;2730466;-82
2024/04/01 04:43:55;;;;;;;;;3.00;1.50;;;;;11.69;65.42;99385.91;2010239;28;2738308;-82
2024/04/01 04:45:08;;;;;;;;;1.00;1.00;;;;;11.69;65.22;99388.53;2035878;28;2739837;-81
2024/04/01 04:46:21;;;;;;;;;2.67;2.00;;;;;11.67;65.60;99385.16;2004020;28;2735685;-82
2024/04/01 04:47:34;;;;;;;;;1.00;1.00;;;;;11.67;65.65;99390.41;1997671;28;2744036;-82
2024/04/01 04:48:49;;;;;;;;;1.17;1.17;;;;;11.68;65.44;99392.09;2014242;28;2740894;-82
2024/04/01 04:50:02;;;;;;;;;2.50;1.17;;;;;11.66;65.50;99393.97;2036423;28;2737746;-83
2024/04/01 04:51:15;;;;;;;;;2.00;1.00;;;;;11.66;65.64;99388.72;2014628;28;2737792;-83
2024/04/01 04:52:29;;;;;;;;;1.00;1.00;;;;;11.67;65.49;99390.41;2020994;28;2735667;-83
2024/04/01 04:53:42;;;;;;;;;1.00;1.00;;;;;11.67;65.72;99381.66;2019238;28;2734653;-82
2024/04/01 04:54:55;;;;;;;;;1.50;1.50;;;;;11.67;65.68;99393.03;2035721;28;2744538;-82
2024/04/01 04:56:08;;;;;;;;;0.50;0.50;;;;;11.64;65.68;99390.59;2013258;28;2729437;-82
2024/04/01 04:57:21;;;;;;;;;0.50;0.50;;;;;11.66;65.62;99385.22;2037596;28;2733598;-82
2024/04/01 04:58:35;;;;;;;;;0.50;0.50;;;;;11.67;65.59;99394.81;2040463;28;2727415;-81
2024/04/01 04:59:49;;;;;;;;;1.33;1.33;;;;;11.66;65.82;99393.97;2038921;28;2742961;-82
2024/04/01 05:01:05;;;;;;;;;0.50;0.50;;;;;11.67;65.04;99395.69;2016308;28;2738815;-82
2024/04/01 05:02:18;;;;;;;;;1.00;0.50;;;;;11.66;65.55;99399.22;2045013;28;2736705;-82
2024/04/01 05:03:32;;;;;;;;;1.33;1.33;;;;;11.67;65.66;99403.56;2043583;28;2737758;-82
2024/04/01 05:04:46;;;;;;;;;2.00;1.17;;;;;11.66;65.68;99396.59;2036458;28;2746113;-82
2024/04/01 05:06:01;;;;;;;;;1.00;1.00;;;;;11.67;65.29;99405.34;2013623;28;2733617;-83
2024/04/01 05:07:14;;;;;;;;;1.17;1.17;;;;;11.65;65.11;99405.44;2021417;28;2745053;-82
2024/04/01 05:08:28;;;;;;;;;3.00;1.33;;;;;11.65;65.61;99408.09;2044462;28;2746098;-82
2024/04/01 05:09:41;;;;;;;;;1.50;0.50;;;;;11.64;65.10;99403.75;2018583;28;2744031;-82
2024/04/01 05:10:57;;;;;;;;;1.00;1.00;;;;;11.61;65.51;99397.81;2021716;28;2738188;-82
2024/04/01 05:12:11;;;;;;;;;2.00;2.00;;;;;11.62;65.52;99402.13;2028615;28;2731519;-82
2024/04/01 05:13:24;;;;;;;;;3.67;2.00;;;;;11.63;65.65;99407.31;2029678;28;2730547;-82
2024/04/01 05:14:37;;;;;;;;;1.33;1.33;;;;;11.60;65.87;99407.50;2039665;28;2733626;-82
2024/04/01 05:15:51;;;;;;;;;2.00;2.00;;;;;11.62;65.75;99410.88;2036760;28;2739909;-82
2024/04/01 05:17:04;;;;;;;;;2.50;2.00;;;;;11.64;65.74;99418.69;2013024;28;2733711;-82
2024/04/01 05:18:17;;;;;;;;;2.00;1.83;;;;;11.62;65.46;99418.78;2003933;28;2741385;-81
2024/04/01 05:19:30;;;;;;;;;1.00;1.00;;;;;11.63;65.70;99417.81;2009161;28;2736788;-82
2024/04/01 05:20:46;;;;;;;;;3.00;1.00;;;;;11.62;65.79;99423.19;2014448;28;2736723;-83
2024/04/01 05:21:59;;;;;;;;;1.67;1.67;;;;;11.62;65.84;99424.03;2017166;28;2739889;-82
2024/04/01 05:23:12;;;;;;;;;1.00;1.00;;;;;11.59;65.88;99426.84;2012682;28;2741971;-82
2024/04/01 05:24:25;;;;;;;;;3.00;2.17;;;;;11.60;65.82;99425.94;2037520;28;2732561;-82
2024/04/01 05:25:38;;;;;;;;;2.00;2.00;;;;;11.62;65.90;99437.22;2007339;28;2734640;-81
2024/04/01 05:26:52;;;;;;;;;1.33;1.33;;;;;11.55;66.00;99420.09;2029080;28;2733643;-81
2024/04/01 05:28:05;;;;;;;;;3.67;2.00;;;;;11.58;66.14;99439.16;2029650;28;2734672;-82
2024/04/01 05:29:19;;;;;;;;;1.33;1.17;;;;;11.56;66.14;99441.03;2027396;28;2729423;-81
2024/04/01 05:30:32;;;;;;;;;3.00;2.00;;;;;11.56;65.82;99437.53;2005673;28;2737770;-82
2024/04/01 05:31:45;;;;;;;;;2.33;2.33;;;;;11.57;65.96;99436.63;2037295;28;2730490;-82
2024/04/01 05:32:58;;;;;;;;;2.17;2.17;;;;;11.54;65.75;99432.38;2044035;28;2746102;-82
2024/04/01 05:34:12;;;;;;;;;1.67;1.00;;;;;11.54;66.00;99436.78;2005785;28;2735140;-82
2024/04/01 05:35:25;;;;;;;;;2.00;1.67;;;;;11.54;65.97;99440.28;2029708;28;2730497;-81
2024/04/01 05:36:39;;;;;;;;;2.83;1.83;;;;;11.53;66.32;99443.84;2038533;28;2730463;-81
2024/04/01 05:37:52;;;;;;;;;2.00;2.00;;;;;11.51;66.38;99439.63;2013434;28;2732570;-82